createdAt,value
2023-05-05T00:01:43.159Z,92.10
2023-05-05T00:04:10.991Z,92.10
2023-05-05T00:06:38.032Z,92.30
2023-05-05T00:09:05.031Z,92.40
2023-05-05T00:11:31.998Z,92.60
2023-05-05T00:13:58.934Z,92.60
2023-05-05T00:16:26.078Z,92.80
2023-05-05T00:18:53.096Z,92.90
2023-05-05T00:21:20.080Z,92.90
2023-05-05T00:23:47.008Z,92.90
2023-05-05T00:26:14.096Z,93.00
2023-05-05T00:28:41.072Z,93.00
2023-05-05T00:31:08.579Z,93.00
2023-05-05T00:33:35.619Z,93.10
2023-05-05T00:36:02.837Z,93.20
2023-05-05T00:38:29.786Z,93.40
2023-05-05T00:40:56.752Z,93.80
2023-05-05T00:43:24.065Z,93.40
2023-05-05T00:46:03.231Z,93.40
2023-05-05T00:48:31.346Z,93.40
2023-05-05T00:50:59.111Z,93.50
2023-05-05T00:53:27.353Z,93.60
2023-05-05T00:55:54.629Z,93.60
2023-05-05T00:58:21.775Z,93.80
2023-05-05T01:00:49.923Z,94.00
2023-05-05T01:03:17.196Z,94.00
2023-05-05T01:06:22.163Z,94.10
2023-05-05T01:09:06.174Z,94.10
2023-05-05T01:11:56.731Z,94.20
2023-05-05T01:14:36.197Z,94.60
2023-05-05T01:17:51.521Z,94.80
2023-05-05T01:20:28.733Z,94.90
2023-05-05T01:23:04.355Z,95.10
2023-05-05T01:25:58.695Z,95.30
2023-05-05T01:29:02.612Z,95.40
2023-05-05T01:31:51.878Z,95.50
2023-05-05T01:34:29.550Z,95.60
2023-05-05T01:37:05.314Z,96.00
2023-05-05T01:39:35.077Z,96.40
2023-05-05T01:42:08.271Z,96.60
2023-05-05T01:44:38.189Z,96.80
2023-05-05T01:47:06.313Z,96.90
2023-05-05T01:49:35.794Z,97.30
2023-05-05T01:52:05.103Z,97.60
2023-05-05T01:54:35.140Z,97.70
2023-05-05T01:57:05.084Z,98.00
2023-05-05T01:59:33.595Z,98.20
2023-05-05T02:02:03.132Z,98.40
2023-05-05T02:04:33.331Z,98.70
2023-05-05T02:07:02.346Z,99.10
2023-05-05T02:09:31.553Z,99.30
2023-05-05T02:11:59.640Z,99.40
2023-05-05T02:14:28.964Z,99.70
2023-05-05T02:16:58.287Z,99.90
2023-05-05T02:19:33.571Z,99.90
2023-05-05T02:22:00.846Z,99.90
2023-05-05T02:24:27.984Z,99.90
2023-05-05T02:26:57.141Z,99.90
2023-05-05T02:29:31.778Z,99.90
2023-05-05T02:32:04.979Z,99.90
2023-05-05T02:34:36.930Z,99.90
2023-05-05T02:37:08.750Z,99.90
2023-05-05T02:40:02.621Z,99.90
2023-05-05T02:42:35.427Z,99.90
2023-05-05T02:45:11.090Z,99.90
2023-05-05T02:47:39.100Z,99.90
2023-05-05T02:50:07.524Z,99.90
2023-05-05T02:52:35.744Z,99.90
2023-05-05T02:55:04.149Z,99.90
2023-05-05T02:58:00.951Z,99.90
2023-05-05T03:00:31.069Z,99.90
2023-05-05T03:03:24.965Z,99.90
2023-05-05T03:05:59.101Z,99.90
2023-05-05T03:08:38.388Z,99.90
2023-05-05T03:11:08.373Z,99.90
2023-05-05T03:13:40.630Z,99.90
2023-05-05T03:16:09.194Z,99.90
2023-05-05T03:18:38.269Z,99.90
2023-05-05T03:21:10.643Z,99.90
2023-05-05T03:23:38.028Z,99.90
2023-05-05T03:26:05.342Z,99.90
2023-05-05T03:28:33.181Z,99.90
2023-05-05T03:31:00.834Z,99.90
2023-05-05T03:33:27.885Z,99.90
2023-05-05T03:35:54.852Z,99.90
2023-05-05T03:38:21.995Z,99.90
2023-05-05T03:40:49.064Z,99.90
2023-05-05T03:43:16.170Z,99.90
2023-05-05T03:45:43.474Z,99.90
2023-05-05T03:48:10.566Z,99.90
2023-05-05T03:50:37.926Z,99.90
2023-05-05T03:53:05.151Z,99.90
2023-05-05T03:55:32.367Z,99.90
2023-05-05T03:57:59.735Z,99.90
2023-05-05T04:00:27.768Z,99.90
2023-05-05T04:02:54.977Z,99.90
2023-05-05T04:05:23.177Z,99.90
2023-05-05T04:07:50.183Z,99.90
2023-05-05T04:10:17.497Z,99.90
2023-05-05T04:12:44.525Z,99.90
2023-05-05T04:15:11.883Z,99.90
2023-05-05T04:17:39.609Z,99.90
2023-05-05T04:20:07.793Z,99.90
2023-05-05T04:22:35.174Z,99.90
2023-05-05T04:25:02.619Z,99.90
2023-05-05T04:27:30.441Z,99.90
2023-05-05T04:29:57.631Z,99.90
2023-05-05T04:32:24.739Z,99.90
2023-05-05T04:34:52.554Z,99.90
2023-05-05T04:37:20.565Z,99.90
2023-05-05T04:39:47.604Z,99.90
2023-05-05T04:42:15.570Z,99.90
2023-05-05T04:44:42.551Z,99.90
2023-05-05T04:47:09.980Z,99.90
2023-05-05T04:49:37.928Z,99.90
2023-05-05T04:52:05.892Z,99.90
2023-05-05T04:54:36.911Z,99.90
2023-05-05T04:57:04.411Z,99.90
2023-05-05T04:59:32.799Z,99.90
2023-05-05T05:01:59.883Z,99.90
2023-05-05T05:04:27.478Z,99.90
2023-05-05T05:06:56.217Z,99.90
2023-05-05T05:09:25.623Z,99.90
2023-05-05T05:11:52.702Z,99.90
2023-05-05T05:14:19.784Z,99.90
2023-05-05T05:16:51.619Z,99.90
2023-05-05T05:19:18.661Z,99.90
2023-05-05T05:21:45.767Z,99.90
2023-05-05T05:24:12.832Z,99.90
2023-05-05T05:26:40.261Z,99.90
2023-05-05T05:29:07.317Z,99.90
2023-05-05T05:31:35.494Z,99.90
2023-05-05T05:34:02.609Z,99.90
2023-05-05T05:36:29.529Z,99.90
2023-05-05T05:38:56.593Z,99.90
2023-05-05T05:41:23.992Z,97.70
2023-05-05T05:43:50.923Z,96.20
2023-05-05T05:46:18.503Z,94.00
2023-05-05T05:48:45.505Z,93.50
2023-05-05T05:51:12.476Z,92.20
2023-05-05T05:53:40.661Z,91.00
2023-05-05T05:56:08.090Z,87.40
2023-05-05T05:58:35.012Z,84.90
2023-05-05T06:01:02.390Z,83.10
2023-05-05T06:03:29.438Z,83.80
2023-05-05T06:05:56.950Z,84.50
2023-05-05T06:08:25.036Z,86.20
2023-05-05T06:10:52.264Z,88.50
2023-05-05T06:13:19.613Z,90.00
2023-05-05T06:15:46.653Z,91.10
2023-05-05T06:18:14.061Z,91.80
2023-05-05T06:20:41.138Z,92.40
2023-05-05T06:23:08.478Z,93.60
2023-05-05T06:25:36.259Z,93.00
2023-05-05T06:28:03.216Z,93.40
2023-05-05T06:30:30.492Z,93.30
2023-05-05T06:32:57.512Z,93.70
2023-05-05T06:35:24.942Z,94.10
2023-05-05T06:37:52.343Z,94.40
2023-05-05T06:40:19.466Z,95.00
2023-05-05T06:42:46.559Z,95.10
2023-05-05T06:45:13.600Z,95.50
2023-05-05T06:47:40.895Z,95.60
2023-05-05T06:50:09.532Z,95.80
2023-05-05T06:52:37.150Z,96.50
2023-05-05T06:55:04.633Z,96.30
2023-05-05T06:57:31.580Z,96.30
2023-05-05T06:59:58.612Z,96.60
2023-05-05T07:02:26.975Z,96.70
2023-05-05T07:04:55.616Z,96.90
2023-05-05T07:07:22.873Z,97.40
2023-05-05T07:09:49.800Z,97.10
2023-05-05T07:12:16.856Z,95.30
2023-05-05T07:14:43.946Z,93.20
2023-05-05T07:17:11.870Z,91.40
2023-05-05T07:19:39.115Z,89.00
2023-05-05T07:22:06.141Z,89.00
2023-05-05T07:24:34.397Z,88.90
2023-05-05T07:27:01.802Z,85.30
2023-05-05T07:29:28.815Z,86.10
2023-05-05T07:31:57.118Z,85.80
2023-05-05T07:34:24.141Z,88.50
2023-05-05T07:36:51.372Z,88.20
2023-05-05T07:39:19.581Z,90.00
2023-05-05T07:41:46.627Z,84.60
2023-05-05T07:44:14.615Z,85.60
2023-05-05T07:46:41.975Z,87.30
2023-05-05T07:49:08.965Z,83.50
2023-05-05T07:51:36.108Z,81.60
2023-05-05T07:54:03.073Z,83.00
2023-05-05T07:56:30.162Z,82.80
2023-05-05T07:58:57.294Z,83.00
2023-05-05T08:01:24.432Z,82.60
2023-05-05T08:03:51.668Z,79.00
2023-05-05T08:06:25.419Z,80.20
2023-05-05T08:08:53.952Z,79.00
2023-05-05T08:11:21.966Z,79.20
2023-05-05T08:13:49.180Z,77.00
2023-05-05T08:16:16.324Z,72.90
2023-05-05T08:18:44.625Z,71.20
2023-05-05T08:21:12.240Z,72.10
2023-05-05T08:23:40.316Z,72.80
2023-05-05T08:26:07.787Z,73.90
2023-05-05T08:28:36.572Z,75.30
2023-05-05T08:31:07.090Z,76.40
2023-05-05T08:33:34.225Z,77.20
2023-05-05T08:36:01.387Z,78.40
2023-05-05T08:38:28.436Z,78.50
2023-05-05T08:40:55.469Z,79.60
2023-05-05T08:43:24.056Z,79.90
2023-05-05T08:45:51.943Z,79.80
2023-05-05T08:48:23.173Z,78.60
2023-05-05T08:50:59.936Z,78.70
2023-05-05T08:53:49.057Z,78.60
2023-05-05T08:56:16.478Z,79.70
2023-05-05T08:58:44.837Z,79.80
2023-05-05T09:01:13.694Z,80.10
2023-05-05T09:03:41.318Z,82.00
2023-05-05T09:06:10.056Z,82.70
2023-05-05T09:08:41.057Z,83.70
2023-05-05T09:11:08.290Z,86.00
2023-05-05T09:13:36.375Z,84.80
2023-05-05T09:16:04.267Z,85.10
2023-05-05T09:18:32.676Z,85.30
2023-05-05T09:20:59.786Z,85.10
2023-05-05T09:23:27.950Z,85.00
2023-05-05T09:26:06.127Z,84.50
2023-05-05T09:28:33.243Z,84.70
2023-05-05T09:31:16.353Z,83.20
2023-05-05T09:33:44.003Z,84.50
2023-05-05T09:36:12.361Z,80.80
2023-05-05T09:38:40.204Z,80.60
2023-05-05T09:41:07.899Z,80.50
2023-05-05T09:44:01.226Z,77.70
2023-05-05T09:46:28.228Z,75.90
2023-05-05T09:48:56.634Z,72.90
2023-05-05T09:51:30.136Z,72.10
2023-05-05T09:53:57.825Z,72.40
2023-05-05T09:56:42.625Z,73.80
2023-05-05T09:59:12.649Z,73.40
2023-05-05T10:01:39.793Z,75.60
2023-05-05T10:04:06.981Z,76.20
2023-05-05T10:06:43.064Z,79.00
2023-05-05T10:09:10.170Z,79.00
2023-05-05T10:11:37.614Z,79.60
2023-05-05T10:14:08.138Z,80.00
2023-05-05T10:16:36.201Z,81.50
2023-05-05T10:19:04.477Z,82.60
2023-05-05T10:21:42.072Z,79.70
2023-05-05T10:24:23.057Z,78.60
2023-05-05T10:26:52.034Z,77.90
2023-05-05T10:30:03.742Z,77.10
2023-05-05T10:33:07.961Z,77.10
2023-05-05T10:35:44.485Z,77.70
2023-05-05T10:38:13.188Z,78.00
2023-05-05T10:40:46.456Z,78.00
2023-05-05T10:43:15.028Z,80.60
2023-05-05T10:45:43.411Z,78.70
2023-05-05T10:48:21.669Z,79.60
2023-05-05T10:50:53.907Z,79.60
2023-05-05T10:53:32.739Z,82.00
2023-05-05T10:56:11.383Z,83.60
2023-05-05T10:58:58.182Z,84.20
2023-05-05T11:01:36.558Z,85.20
2023-05-05T11:04:18.815Z,85.60
2023-05-05T11:07:14.713Z,87.00
2023-05-05T11:10:05.484Z,88.40
2023-05-05T11:12:45.892Z,89.00
2023-05-05T11:15:28.642Z,89.60
2023-05-05T11:18:01.481Z,90.50
2023-05-05T11:20:44.111Z,91.10
2023-05-05T11:23:11.052Z,91.00
2023-05-05T11:25:39.146Z,90.30
2023-05-05T11:28:13.187Z,90.60
2023-05-05T11:31:04.242Z,89.70
2023-05-05T11:33:34.107Z,88.60
2023-05-05T11:36:08.125Z,88.20
2023-05-05T11:38:48.682Z,87.40
2023-05-05T11:41:52.525Z,87.30
2023-05-05T11:44:21.211Z,87.20
2023-05-05T11:46:51.351Z,87.80
2023-05-05T11:49:29.717Z,84.10
2023-05-05T11:52:01.408Z,82.60
2023-05-05T11:54:29.429Z,82.70
2023-05-05T11:57:02.430Z,80.80
2023-05-05T11:59:29.785Z,78.90
2023-05-05T12:01:56.832Z,74.30
2023-05-05T12:04:24.358Z,76.20
2023-05-05T12:06:51.348Z,75.20
2023-05-05T12:09:22.044Z,72.50
2023-05-05T12:11:58.226Z,72.00
2023-05-05T12:14:26.015Z,70.00
2023-05-05T12:16:56.506Z,69.30
2023-05-05T12:19:24.577Z,69.80
2023-05-05T12:21:54.339Z,63.20
2023-05-05T12:24:21.505Z,63.50
2023-05-05T12:26:48.510Z,64.30
2023-05-05T12:29:25.036Z,64.80
2023-05-05T12:31:52.172Z,64.70
2023-05-05T12:34:19.369Z,63.30
2023-05-05T12:36:47.029Z,63.30
2023-05-05T12:39:13.953Z,62.90
2023-05-05T12:41:41.401Z,64.30
2023-05-05T12:44:08.471Z,63.10
2023-05-05T12:46:49.283Z,64.30
2023-05-05T12:49:17.289Z,67.30
2023-05-05T12:51:56.017Z,68.00
2023-05-05T12:54:25.193Z,66.90
2023-05-05T12:56:52.313Z,66.60
2023-05-05T12:59:22.710Z,65.00
2023-05-05T13:01:56.976Z,66.60
2023-05-05T13:04:28.417Z,63.20
2023-05-05T13:07:15.454Z,63.90
2023-05-05T13:09:43.004Z,63.20
2023-05-05T13:12:14.345Z,64.80
2023-05-05T13:14:42.056Z,66.50
2023-05-05T13:17:09.597Z,66.70
2023-05-05T13:19:41.974Z,64.90
2023-05-05T13:22:13.322Z,63.10
2023-05-05T13:24:50.530Z,64.60
2023-05-05T13:27:19.492Z,65.00
2023-05-05T13:29:47.294Z,63.70
2023-05-05T13:32:14.401Z,64.20
2023-05-05T13:34:42.704Z,63.60
2023-05-05T13:37:09.797Z,63.90
2023-05-05T13:39:37.318Z,62.00
2023-05-05T13:42:04.716Z,61.40
2023-05-05T13:44:32.100Z,63.20
2023-05-05T13:46:59.387Z,60.50
2023-05-05T13:49:27.181Z,60.60
2023-05-05T13:51:55.303Z,60.60
2023-05-05T13:54:22.265Z,60.40
2023-05-05T13:56:49.294Z,59.40
2023-05-05T13:59:17.563Z,59.30
2023-05-05T14:01:44.553Z,59.00
2023-05-05T14:04:12.011Z,59.20
2023-05-05T14:06:38.974Z,58.70
2023-05-05T14:09:08.068Z,61.20
2023-05-05T14:11:35.287Z,65.30
2023-05-05T14:14:03.322Z,65.90
2023-05-05T14:16:30.512Z,67.00
2023-05-05T14:18:57.912Z,69.10
2023-05-05T14:21:24.853Z,70.10
2023-05-05T14:23:52.656Z,69.60
2023-05-05T14:26:19.632Z,71.30
2023-05-05T14:28:48.939Z,71.30
2023-05-05T14:31:17.918Z,71.50
2023-05-05T14:33:45.311Z,72.10
2023-05-05T14:36:12.405Z,74.80
2023-05-05T14:38:39.597Z,73.80
2023-05-05T14:41:06.879Z,76.50
2023-05-05T14:43:33.897Z,75.10
2023-05-05T14:46:06.855Z,75.90
2023-05-05T14:48:34.457Z,77.20
2023-05-05T14:51:01.870Z,77.70
2023-05-05T14:53:29.282Z,78.20
2023-05-05T14:55:56.637Z,78.00
2023-05-05T14:58:24.780Z,78.10
2023-05-05T15:00:55.120Z,79.30
2023-05-05T15:03:22.684Z,79.20
2023-05-05T15:05:49.789Z,80.60
2023-05-05T15:08:18.819Z,80.10
2023-05-05T15:10:46.507Z,80.40
2023-05-05T15:13:14.372Z,79.80
2023-05-05T15:15:42.060Z,78.40
2023-05-05T15:18:09.103Z,79.30
2023-05-05T15:20:36.207Z,78.80
2023-05-05T15:23:04.360Z,76.00
2023-05-05T15:25:32.775Z,77.90
2023-05-05T15:28:01.397Z,76.00
2023-05-05T15:30:28.747Z,78.40
2023-05-05T15:32:55.944Z,76.50
2023-05-05T15:35:25.567Z,76.30
2023-05-05T15:37:54.566Z,76.30
2023-05-05T15:40:21.758Z,77.00
2023-05-05T15:42:50.022Z,77.60
2023-05-05T15:45:17.738Z,77.10
2023-05-05T15:47:45.071Z,77.40
2023-05-05T15:50:12.246Z,76.60
2023-05-05T15:52:39.622Z,78.30
2023-05-05T15:55:07.409Z,78.00
2023-05-05T15:57:34.982Z,78.40
2023-05-05T16:00:02.440Z,78.50
2023-05-05T16:02:29.939Z,81.40
2023-05-05T16:04:58.293Z,85.30
2023-05-05T16:07:26.042Z,84.40
2023-05-05T16:09:53.461Z,82.40
2023-05-05T16:12:21.233Z,83.10
2023-05-05T16:14:48.268Z,85.50
2023-05-05T16:17:15.643Z,85.10
2023-05-05T16:19:42.898Z,86.00
2023-05-05T16:22:09.930Z,87.90
2023-05-05T16:24:37.548Z,88.20
2023-05-05T16:27:04.799Z,90.00
2023-05-05T16:29:31.886Z,89.50
2023-05-05T16:31:59.306Z,90.30
2023-05-05T16:34:26.721Z,90.70
2023-05-05T16:36:53.953Z,91.20
2023-05-05T16:39:20.980Z,92.30
2023-05-05T16:41:47.950Z,92.40
2023-05-05T16:44:16.277Z,92.40
2023-05-05T16:46:43.341Z,92.30
2023-05-05T16:49:10.541Z,92.40
2023-05-05T16:51:37.668Z,92.90
2023-05-05T16:54:04.682Z,93.20
2023-05-05T16:56:32.680Z,93.70
2023-05-05T16:58:59.706Z,94.10
2023-05-05T17:01:26.764Z,93.80
2023-05-05T17:03:55.657Z,93.30
2023-05-05T17:06:22.682Z,93.20
2023-05-05T17:08:49.648Z,93.40
2023-05-05T17:11:16.566Z,93.30
2023-05-05T17:13:43.671Z,93.40
2023-05-05T17:16:10.809Z,93.50
2023-05-05T17:18:37.838Z,93.50
2023-05-05T17:21:05.921Z,93.30
2023-05-05T17:23:33.033Z,93.50
2023-05-05T17:26:00.511Z,93.70
2023-05-05T17:28:28.000Z,94.20
2023-05-05T17:30:55.009Z,94.20
2023-05-05T17:33:22.623Z,94.20
2023-05-05T17:35:49.770Z,94.50
2023-05-05T17:38:18.039Z,95.30
2023-05-05T17:40:45.345Z,96.10
2023-05-05T17:43:12.288Z,97.70
2023-05-05T17:45:39.305Z,98.70
2023-05-05T17:48:06.561Z,99.60
2023-05-05T17:50:33.509Z,99.90
2023-05-05T17:53:00.676Z,99.90
2023-05-05T17:55:28.265Z,99.90
2023-05-05T17:57:57.389Z,99.90
2023-05-05T18:00:24.665Z,99.90
2023-05-05T18:02:51.753Z,99.90
2023-05-05T18:05:18.865Z,99.90
2023-05-05T18:07:45.843Z,99.90
2023-05-05T18:10:13.353Z,99.90
2023-05-05T18:12:40.430Z,99.90
2023-05-05T18:15:09.027Z,99.90
2023-05-05T18:17:36.431Z,99.90
2023-05-05T18:20:04.400Z,99.90
2023-05-05T18:22:31.430Z,99.90
2023-05-05T18:24:59.888Z,99.90
2023-05-05T18:27:28.329Z,99.90
2023-05-05T18:29:55.424Z,99.90
2023-05-05T18:32:22.486Z,99.90
2023-05-05T18:34:49.804Z,99.90
2023-05-05T18:37:16.798Z,99.90
2023-05-05T18:39:45.476Z,99.90
2023-05-05T18:42:13.224Z,99.90
2023-05-05T18:44:40.345Z,99.90
2023-05-05T18:47:08.865Z,99.90
2023-05-05T18:49:35.949Z,99.90
2023-05-05T18:52:03.120Z,99.90
2023-05-05T18:54:30.159Z,99.90
2023-05-05T18:56:57.431Z,99.90
2023-05-05T18:59:24.629Z,99.90
2023-05-05T19:01:51.588Z,99.90
2023-05-05T19:04:30.167Z,99.90
2023-05-05T19:06:58.953Z,99.90
2023-05-05T19:09:27.587Z,99.90
2023-05-05T19:11:54.543Z,99.90
2023-05-05T19:14:23.103Z,99.90
2023-05-05T19:16:50.097Z,99.90
2023-05-05T19:19:17.212Z,99.90
2023-05-05T19:21:44.365Z,99.90
2023-05-05T19:24:11.982Z,99.90
2023-05-05T19:26:39.149Z,99.90
2023-05-05T19:29:06.521Z,99.90
2023-05-05T19:31:33.619Z,99.90
2023-05-05T19:34:02.981Z,99.90
2023-05-05T19:36:34.582Z,99.90
2023-05-05T19:39:02.373Z,99.90
2023-05-05T19:41:31.079Z,99.90
2023-05-05T19:43:58.558Z,99.90
2023-05-05T19:46:28.538Z,99.90
2023-05-05T19:48:55.912Z,99.90
2023-05-05T19:51:23.001Z,99.90
2023-05-05T19:53:50.521Z,99.90
2023-05-05T19:56:17.879Z,99.90
2023-05-05T19:58:59.200Z,99.90
2023-05-05T20:01:27.494Z,99.90
2023-05-05T20:03:56.545Z,99.90
2023-05-05T20:06:23.797Z,99.90
2023-05-05T20:08:51.016Z,99.90
2023-05-05T20:11:18.437Z,99.90
2023-05-05T20:13:45.547Z,99.90
2023-05-05T20:16:12.618Z,99.90
2023-05-05T20:18:40.453Z,99.90
2023-05-05T20:21:07.547Z,99.90
2023-05-05T20:23:34.726Z,99.90
2023-05-05T20:26:01.851Z,99.90
2023-05-05T20:28:29.837Z,99.90
2023-05-05T20:30:56.956Z,99.90
2023-05-05T20:33:24.074Z,99.90
2023-05-05T20:35:51.134Z,99.90
2023-05-05T20:38:18.410Z,99.90
2023-05-05T20:40:46.447Z,99.90
2023-05-05T20:43:14.699Z,99.90
2023-05-05T20:45:41.673Z,99.90
2023-05-05T20:48:11.530Z,99.90
2023-05-05T20:50:42.190Z,99.90
2023-05-05T20:53:10.923Z,99.90
2023-05-05T20:55:38.109Z,99.90
2023-05-05T20:58:07.545Z,99.90
2023-05-05T21:00:34.924Z,99.90
2023-05-05T21:03:02.996Z,99.90
2023-05-05T21:05:31.537Z,99.90
2023-05-05T21:08:00.822Z,99.90
2023-05-05T21:10:29.267Z,99.90
2023-05-05T21:12:56.474Z,99.90
2023-05-05T21:15:23.638Z,99.90
2023-05-05T21:17:51.246Z,99.90
2023-05-05T21:20:19.299Z,99.90
2023-05-05T21:22:46.590Z,99.90
2023-05-05T21:25:13.609Z,99.90
2023-05-05T21:27:41.179Z,99.90
2023-05-05T21:30:11.067Z,99.90
2023-05-05T21:32:40.225Z,99.90
2023-05-05T21:35:09.261Z,99.90
2023-05-05T21:37:40.109Z,99.90
2023-05-05T21:40:14.207Z,99.90
2023-05-05T21:42:42.958Z,99.90
2023-05-05T21:45:11.866Z,99.90
2023-05-05T21:47:39.122Z,99.90
2023-05-05T21:50:07.519Z,99.90
2023-05-05T21:52:34.705Z,99.90
2023-05-05T21:55:02.416Z,99.90
2023-05-05T21:57:29.514Z,99.90
2023-05-05T21:59:57.392Z,99.90
2023-05-05T22:02:25.822Z,99.90
2023-05-05T22:04:53.400Z,99.90
2023-05-05T22:07:20.438Z,99.90
2023-05-05T22:09:47.458Z,99.90
2023-05-05T22:12:14.572Z,99.90
2023-05-05T22:14:41.687Z,99.90
2023-05-05T22:17:08.953Z,99.90
2023-05-05T22:19:36.291Z,99.90
2023-05-05T22:22:03.271Z,99.90
2023-05-05T22:24:30.695Z,99.90
2023-05-05T22:26:58.392Z,99.90
2023-05-05T22:29:25.534Z,99.90
2023-05-05T22:31:53.403Z,99.90
2023-05-05T22:34:22.167Z,99.90
2023-05-05T22:36:50.485Z,99.90
2023-05-05T22:39:18.695Z,99.90
2023-05-05T22:41:46.906Z,99.90
2023-05-05T22:44:14.595Z,99.90
2023-05-05T22:46:42.692Z,99.90
2023-05-05T22:49:10.250Z,99.90
2023-05-05T22:51:38.335Z,99.90
2023-05-05T22:54:05.429Z,99.90
2023-05-05T22:56:33.330Z,99.90
2023-05-05T22:59:00.421Z,99.90
2023-05-05T23:01:27.685Z,99.90
2023-05-05T23:03:54.690Z,99.90
2023-05-05T23:06:21.852Z,99.90
2023-05-05T23:08:49.788Z,99.90
2023-05-05T23:11:17.151Z,99.90
2023-05-05T23:13:44.381Z,99.90
2023-05-05T23:16:11.398Z,99.90
2023-05-05T23:18:39.017Z,99.90
2023-05-05T23:21:06.181Z,99.90
2023-05-05T23:23:33.428Z,99.90
2023-05-05T23:26:00.468Z,99.90
2023-05-05T23:28:27.442Z,99.90
2023-05-05T23:30:54.872Z,99.90
2023-05-05T23:33:22.063Z,99.90
2023-05-05T23:35:49.242Z,99.90
2023-05-05T23:38:16.402Z,99.90
2023-05-05T23:40:43.399Z,99.90
2023-05-05T23:43:12.103Z,99.90
2023-05-05T23:45:39.212Z,99.90
2023-05-05T23:48:07.346Z,99.90
2023-05-05T23:50:35.743Z,99.90
2023-05-05T23:53:02.710Z,99.90
2023-05-05T23:55:30.075Z,99.90
2023-05-05T23:57:57.110Z,99.90
